x

Culdrose (03809) Weather Station

9:50 - Mon 8th Feb 2016 All times are GMT.

  • Wind
    16mph, 36mph gusts
  • Luft Temp 45°f
  • Sea Pressure 998mb
  • Culdrose
  • Culdrose

More Historic Weather Station data

Upgrade to MSW Pro to gain access to the past 30 days of data for over 8000 Wavebouys and Weather Stations around the globe.

Join Pro

Comparision Forecast

View Surf forecast
   
Mo 02/08 9:50 16 36 mph 998mb 45f
8:50 16 36 mph 999mb 45f
7:50 20 40 mph 999mb 43f
6:50 23 38 mph 999mb 46f
5:50 23 43 mph 999mb 45f
4:50 21 36 mph 998mb 45f
4:08 23 44 mph 998mb 45f
3:50 32 46 mph 998mb 46f
2:50 32 58 mph 997mb 48f
2:05 33 59 mph 997mb 46f
1:50 31 55 mph 996mb 48f
12:50 36 65 mph 995mb 48f
11:50 36 62 mph 994mb 48f
10:50 37 66 mph 993mb 48f
9:50 39 68 mph 992mb 46f
8:50 35 63 mph 991mb 46f
7:50 29 58 mph 990mb 46f
6:50 25 52 mph 989mb 46f
5:50 30 59 mph 988mb 46f
4:50 23 52 mph 988mb 46f
3:50 37 65 mph 989mb 41f
2:50 30 56 mph 988mb 43f
1:50 23 61 mph 989mb 46f
12:50 33 55 mph 989mb 45f
So 02/07 11:50 21 41 mph 988mb 48f
10:50 25 48 mph 989mb 48f
9:50 20 39 mph 988mb 50f
8:50 27 59 mph 988mb 48f
7:50 20 40 mph 989mb 52f
6:50 30 45 mph 989mb 50f
5:50 33 54 mph 990mb 50f
4:50 33 54 mph 991mb 50f
3:50 32 48 mph 993mb 48f
2:50 29 46 mph 995mb 46f
1:50 25 43 mph 996mb 46f
12:50 17 32 mph 997mb 46f
11:50 14 30 mph 998mb 45f
10:50 16 33 mph 998mb 46f
9:50 17 31 mph 997mb 46f
8:50 17 32 mph 996mb 46f
7:50 14 29 mph 995mb 45f
6:50 14 25 mph 995mb 41f
5:50 20 38 mph 994mb 45f
4:50 20 39 mph 993mb 45f
3:50 27 39 mph 992mb 45f
2:50 20 32 mph 992mb 43f
1:50 17 32 mph 991mb 37f
12:50 22
mph
991mb 43f
Sa 02/06 11:50 16 38 mph 990mb 45f
10:50 14 38 mph 990mb 45f
9:50 17 33 mph 989mb 45f
8:50 14 31 mph 988mb 46f
7:50 12 23 mph 987mb 46f
6:50 12 30 mph 987mb 46f
5:50 13 27 mph 986mb 45f
4:50 17 31 mph 985mb 45f
3:50 22 37 mph 985mb 50f
2:50 29 47 mph 985mb 50f
1:50 25 41 mph 986mb 50f
12:50 29 45 mph 988mb 50f
11:50 25 41 mph 990mb 50f
10:50 29 55 mph 991mb 52f
9:50 29 56 mph 992mb 52f
8:50 32 55 mph 993mb 52f
7:50 29 45 mph 994mb 52f
6:50 20 32 mph 996mb 48f
5:50 16
mph
998mb 50f
4:50 21 36 mph 1000mb 50f
3:50 20
mph
1001mb 50f
2:50 13
mph
1003mb 46f
1:50 7
mph
1004mb 45f
12:50 7
mph
1006mb 46f
Fr 02/05 11:50 7
mph
1007mb 46f
10:50 7
mph
1008mb 48f
9:50 17 32 mph 1008mb 48f
8:50 24 39 mph 1008mb 50f
7:50 23 37 mph 1009mb 50f
6:50 21 36 mph 1010mb 48f
5:50 29 46 mph 1010mb 50f
4:50 29
mph
1010mb 50f
3:50 29 41 mph 1011mb 52f
2:50 27 39 mph 1012mb 52f
1:50 29 40 mph 1014mb 50f
12:50 25
mph
1015mb 50f
11:50 29
mph
1017mb 50f
10:50 25
mph
1018mb 50f
9:50 23
mph
1019mb 50f
8:50 18 31 mph 1019mb 50f
7:50 23
mph
1020mb 50f
6:50 17
mph
1021mb 50f
5:50 17 29 mph 1022mb 48f
4:50 17
mph
1022mb 50f
3:50 17
mph
1023mb 50f
2:50 14
mph
1024mb 50f
1:50 14
mph
1025mb 50f
12:50 14
mph
1026mb 50f
Do 02/04 11:50 14
mph
1027mb 50f
10:50 14
mph
1028mb 50f